Aviation Digital Data Service (ADDS)

Output produced by METARs form (1330 UTC 15 August 2018)
found at http://www.aviationweather.gov/adds/metars/
 
KMSS 151253Z AUTO 20010KT 10SM FEW007 23/21 A2985 RMK AO2 SLP105 T02280211
KMSS 151228Z AUTO 22006KT 10SM FEW006 22/21 A2985 RMK AO2 T02220211
KMSS 151206Z AUTO 23006KT 10SM BKN005 22/21 A2985 RMK AO2 T02170211
KMSS 151153Z AUTO 23007KT 10SM OVC004 22/22 A2985 RMK AO2 SLP107 70007 T02170217 10217 20183 53016
KMSS 151053Z AUTO 23007KT 7SM OVC003 21/21 A2983 RMK AO2 SLP101 T02060206
KMSS 151304Z 1513/1612 23007KT P6SM SCT150 SCT250 
     FM151400 24007KT P6SM SCT060 SCT120 
     FM151700 27008KT P6SM VCSH SCT060 SCT120 
     FM152100 29010KT P6SM VCSH BKN060 
     FM160500 VRB03KT P6SM BKN070